ROMMA est une association bénévole à but non lucratif. Votre soutien est indispensable : ADHERER à ROMMA ou FAIRE un DON

Nice - (06, Alpes-Maritimes)

Côte-d'Azur (190 m)   Longitude: 07° 14' E   Latitude: 43° 43' N Station partenaire n°136
 

Détail journalier du     <<     >>

Température Precipitation Humidité Pression Vent Dir Rafale Dir. rafale Ensol.
Heure (°C) (mm) (%) (hPa) (km/h) (km/h) (min)
01:00 14.408510181---6N0
02:00 14.808010181NNO8N0
03:00 15.107810181---8N0
04:00 15.007810174N10N0
05:00 15.107810172N13NNE0
06:00 14.907810174NNO13NNO0
07:00 15.307610174N13NNO0
08:00 15.507510174N19NNO0
09:00 16.107310175N16NNO0
10:00 19.206610184NNO15N40
11:00 19.207110183NO8N30
12:00 19.507110173SE15SSE10
13:00 21.206910165ESE16ESE20
14:00 21.1072101611SSE26SSE30
15:00 19.507910157SSO18SSO10
16:00 19.808110155SSO16SSO0
17:00 19.808010142SSE10OSO0
18:00 19.708110132NE8NE0
19:00 18.408410123NNE18NNE0
20:00 17.708210121NNE6NE0
21:00 16.6086101200---0
22:00 16.008810121NE6NE0
23:00 17.107210122NNO16N0
minuit 16.806510133SSO13SSE0

Graphique du 09-10-2019

 

Serveur OMMA